Terminal Aerodrome Forecast
Issued by NWS St Louis, MO

Home | Current Version | Previous Version | Text Only | Print | Product List | Glossary On
Versions: 1 2 3 4 5 6 7 8 9 10 11 12 13 14 15 16 17 18 19 20 21 22 23 24 25 26
000
FTUS43 KLSX 300529
TAFSTL
TAF
KSTL 300529Z 3006/0112 28007KT P6SM SKC
     FM301700 26013G20KT P6SM BKN040 BKN120
     FM010000 27008KT P6SM BKN050
     FM010800 26007KT P6SM SCT060=

USA.gov is the U.S. government's official web portal to all federal, state and local government web resources and services.